Time;durP1;ratioP1;P1;durP2;ratioP2;P2;SDS_P1;SDS_P2;PMS_P1;PMS_P2;Temp;Humidity;BMP_temperature;BMP_pressure;BME280_temperature;BME280_humidity;BME280_pressure;Samples;Min_cycle;Max_cycle;Signal;HPM_P1;HPM_P2
2022/07/04 00:00:10;;;;;;;3.73;2.33;;;;;;;;;;4943377;29;20203;-82
2022/07/04 00:02:38;;;;;;;7.43;2.80;;;;;;;;;;4942855;28;20310;-82
2022/07/04 00:05:12;;;;;;;4.17;2.23;;;;;;;;;;4936011;29;20221;-81
2022/07/04 00:07:39;;;;;;;5.03;2.10;;;;;;;;;;4930068;29;20203;-82
2022/07/04 00:10:11;;;;;;;5.60;2.43;;;;;;;;;;4930970;29;20216;-82
2022/07/04 00:12:40;;;;;;;3.13;2.33;;;;;;;;;;4937087;29;20263;-81
2022/07/04 00:15:08;;;;;;;5.47;2.70;;;;;;;;;;4938396;29;20211;-82
2022/07/04 00:17:36;;;;;;;6.13;2.30;;;;;;;;;;4943033;29;20931;-82
2022/07/04 00:20:05;;;;;;;4.60;2.40;;;;;;;;;;4945136;29;20210;-81
2022/07/04 00:22:32;;;;;;;8.77;2.80;;;;;;;;;;4921704;29;20238;-82
2022/07/04 00:25:00;;;;;;;5.40;2.50;;;;;;;;;;4939708;29;20238;-81
2022/07/04 00:27:30;;;;;;;6.97;2.80;;;;;;;;;;4937633;29;20199;-81
2022/07/04 00:29:59;;;;;;;10.33;2.90;;;;;;;;;;4944836;29;20193;-81
2022/07/04 00:32:27;;;;;;;12.50;2.90;;;;;;;;;;4935982;28;20258;-81
2022/07/04 00:34:58;;;;;;;4.87;2.60;;;;;;;;;;4936948;29;20214;-80
2022/07/04 00:37:35;;;;;;;4.03;2.50;;;;;;;;;;4944240;29;20224;-80
2022/07/04 00:40:05;;;;;;;5.90;2.23;;;;;;;;;;4945303;29;20236;-81
2022/07/04 00:42:37;;;;;;;7.83;2.80;;;;;;;;;;4936311;28;20278;-82
2022/07/04 00:45:10;;;;;;;6.00;2.70;;;;;;;;;;4939122;29;20282;-81
2022/07/04 00:47:37;;;;;;;7.87;2.70;;;;;;;;;;4939688;29;20277;-81
2022/07/04 00:50:04;;;;;;;7.70;2.30;;;;;;;;;;4942294;29;20213;-81
2022/07/04 00:55:36;;;;;;;5.80;2.70;;;;;;;;;;4937845;29;20218;-82
2022/07/04 00:58:04;;;;;;;4.60;2.80;;;;;;;;;;4934237;29;20230;-82
2022/07/04 01:00:42;;;;;;;4.83;2.67;;;;;;;;;;4938030;29;20210;-80
2022/07/04 01:03:12;;;;;;;5.00;2.50;;;;;;;;;;4947119;28;20217;-81
2022/07/04 01:05:39;;;;;;;4.30;2.50;;;;;;;;;;4933025;29;20211;-81
2022/07/04 01:08:08;;;;;;;10.40;2.40;;;;;;;;;;4939065;29;20215;-81
2022/07/04 01:10:40;;;;;;;4.17;2.73;;;;;;;;;;4943699;29;20234;-81
2022/07/04 01:13:08;;;;;;;5.87;3.23;;;;;;;;;;4945329;29;20218;-82
2022/07/04 01:15:41;;;;;;;5.80;2.57;;;;;;;;;;4937004;29;20207;-81
2022/07/04 01:18:08;;;;;;;4.30;2.83;;;;;;;;;;4941075;29;20219;-82
2022/07/04 01:20:55;;;;;;;8.07;3.10;;;;;;;;;;4940729;29;20213;-81
2022/07/04 01:23:42;;;;;;;4.10;2.80;;;;;;;;;;4934870;29;20291;-81
2022/07/04 01:26:18;;;;;;;8.37;2.80;;;;;;;;;;4937351;29;20233;-82
2022/07/04 01:28:53;;;;;;;9.43;3.33;;;;;;;;;;4942312;29;20662;-82
2022/07/04 01:31:22;;;;;;;3.70;2.73;;;;;;;;;;4940734;29;20230;-82
2022/07/04 01:33:51;;;;;;;4.93;2.63;;;;;;;;;;4942789;29;20274;-82
2022/07/04 01:36:25;;;;;;;4.13;2.60;;;;;;;;;;4940854;29;20592;-82
2022/07/04 01:38:56;;;;;;;5.30;3.17;;;;;;;;;;4942679;29;20285;-84
2022/07/04 01:41:28;;;;;;;6.93;3.00;;;;;;;;;;4942064;29;21730;-83
2022/07/04 01:44:02;;;;;;;4.80;3.20;;;;;;;;;;4948137;28;20274;-83
2022/07/04 01:46:29;;;;;;;4.67;3.00;;;;;;;;;;4963195;28;20249;-83
2022/07/04 01:48:58;;;;;;;7.23;3.10;;;;;;;;;;4959251;28;20423;-83
2022/07/04 01:51:41;;;;;;;5.60;3.40;;;;;;;;;;4942795;29;20231;-83
2022/07/04 01:54:12;;;;;;;5.23;3.20;;;;;;;;;;4933576;29;20302;-83
2022/07/04 01:56:40;;;;;;;6.40;3.40;;;;;;;;;;4938564;29;20231;-83
2022/07/04 01:59:08;;;;;;;5.47;3.43;;;;;;;;;;4942502;29;20290;-83
2022/07/04 02:01:34;;;;;;;5.03;3.20;;;;;;;;;;4937494;29;20227;-83
2022/07/04 02:04:08;;;;;;;7.13;3.20;;;;;;;;;;4939480;29;20196;-83
2022/07/04 02:06:35;;;;;;;8.67;3.50;;;;;;;;;;4942272;29;20214;-82
2022/07/04 02:09:21;;;;;;;7.33;3.50;;;;;;;;;;4943021;29;20310;-83
2022/07/04 02:14:40;;;;;;;5.50;3.40;;;;;;;;;;4942666;29;20258;-83
2022/07/04 02:17:08;;;;;;;9.40;3.87;;;;;;;;;;4939345;29;20230;-83
2022/07/04 02:19:43;;;;;;;6.37;3.20;;;;;;;;;;4938311;29;20205;-83
2022/07/04 02:22:11;;;;;;;4.37;3.30;;;;;;;;;;4941212;29;20254;-83
2022/07/04 02:24:38;;;;;;;4.63;3.40;;;;;;;;;;4941298;29;20293;-83
2022/07/04 02:27:06;;;;;;;6.77;3.33;;;;;;;;;;4939798;29;20298;-83
2022/07/04 02:29:36;;;;;;;5.40;3.70;;;;;;;;;;4937932;29;20283;-83
2022/07/04 02:32:03;;;;;;;5.20;3.33;;;;;;;;;;4941821;29;20230;-83
2022/07/04 02:34:30;;;;;;;4.50;3.67;;;;;;;;;;4941203;29;20210;-83
2022/07/04 02:37:00;;;;;;;7.33;3.80;;;;;;;;;;4938377;28;20235;-83
2022/07/04 02:39:27;;;;;;;10.83;4.10;;;;;;;;;;4940589;29;20218;-83
2022/07/04 02:41:55;;;;;;;7.20;3.90;;;;;;;;;;4940037;29;20571;-83
2022/07/04 02:44:23;;;;;;;4.80;3.70;;;;;;;;;;4940942;29;20202;-82
2022/07/04 02:46:50;;;;;;;6.57;3.80;;;;;;;;;;4935842;29;20214;-82
2022/07/04 02:49:20;;;;;;;7.27;4.00;;;;;;;;;;4942784;29;20210;-82
2022/07/04 02:51:48;;;;;;;6.53;4.43;;;;;;;;;;4937802;29;20231;-82
2022/07/04 02:54:15;;;;;;;5.60;3.60;;;;;;;;;;4948318;29;20207;-82
2022/07/04 02:56:42;;;;;;;5.07;3.10;;;;;;;;;;4945688;29;20247;-82
2022/07/04 02:59:10;;;;;;;5.10;3.30;;;;;;;;;;4942772;29;20217;-82
2022/07/04 03:01:38;;;;;;;6.37;3.37;;;;;;;;;;4996647;23;20236;-80
2022/07/04 03:04:05;;;;;;;5.53;3.50;;;;;;;;;;4995008;28;20209;-80
2022/07/04 03:06:33;;;;;;;4.70;3.60;;;;;;;;;;4991465;28;20205;-79
2022/07/04 03:09:00;;;;;;;6.97;3.43;;;;;;;;;;4991351;28;20201;-80
2022/07/04 03:11:27;;;;;;;6.93;3.43;;;;;;;;;;4984813;28;20226;-80
2022/07/04 03:13:54;;;;;;;6.53;3.33;;;;;;;;;;4971616;28;20201;-81
2022/07/04 03:16:22;;;;;;;4.80;3.33;;;;;;;;;;4972570;28;20677;-80
2022/07/04 03:18:50;;;;;;;4.67;3.27;;;;;;;;;;4973155;28;20221;-81
2022/07/04 03:21:17;;;;;;;5.87;3.13;;;;;;;;;;4976693;28;20321;-80
2022/07/04 03:23:57;;;;;;;5.63;3.20;;;;;;;;;;4971495;28;20201;-80
2022/07/04 03:26:24;;;;;;;7.97;3.20;;;;;;;;;;4969987;28;20206;-80
2022/07/04 03:28:51;;;;;;;8.40;3.60;;;;;;;;;;4968175;28;20284;-81
2022/07/04 03:31:19;;;;;;;7.47;3.20;;;;;;;;;;4974103;28;20222;-80
2022/07/04 03:33:46;;;;;;;5.37;3.43;;;;;;;;;;4971045;28;20206;-80
2022/07/04 03:36:15;;;;;;;4.73;3.30;;;;;;;;;;4973401;28;20202;-80
2022/07/04 03:38:42;;;;;;;4.83;3.90;;;;;;;;;;4969652;28;20324;-81
2022/07/04 03:41:10;;;;;;;7.53;3.60;;;;;;;;;;4972287;28;20206;-82
2022/07/04 03:43:37;;;;;;;7.20;3.70;;;;;;;;;;4970077;28;20202;-81
2022/07/04 03:46:04;;;;;;;7.47;3.70;;;;;;;;;;4972249;28;20207;-81
2022/07/04 03:48:31;;;;;;;11.63;3.47;;;;;;;;;;4969159;28;20209;-82
2022/07/04 03:50:58;;;;;;;5.13;3.23;;;;;;;;;;4969137;28;20260;-81
2022/07/04 03:53:27;;;;;;;5.40;3.20;;;;;;;;;;4970243;28;20305;-81
2022/07/04 03:55:54;;;;;;;7.43;3.87;;;;;;;;;;4973254;28;20209;-81
2022/07/04 03:58:21;;;;;;;4.87;3.07;;;;;;;;;;4969067;28;20219;-80
2022/07/04 04:00:48;;;;;;;8.57;3.50;;;;;;;;;;4969977;28;20206;-80
2022/07/04 04:06:00;;;;;;;11.17;2.40;;;;;;;;;;4985205;28;20174;-79
2022/07/04 04:08:28;;;;;;;2.73;2.20;;;;;;;;;;4989537;28;20221;-79
2022/07/04 04:10:56;;;;;;;4.70;2.40;;;;;;;;;;4977484;28;20202;-80
2022/07/04 04:13:23;;;;;;;4.53;2.30;;;;;;;;;;4969694;28;20217;-80
2022/07/04 04:15:50;;;;;;;4.10;2.03;;;;;;;;;;4972305;28;20217;-80
2022/07/04 04:18:17;;;;;;;2.70;2.10;;;;;;;;;;4972923;28;20237;-80
2022/07/04 04:20:44;;;;;;;4.63;2.00;;;;;;;;;;4967275;28;20214;-80
2022/07/04 04:23:11;;;;;;;9.23;2.23;;;;;;;;;;4970349;28;20233;-79
2022/07/04 04:25:40;;;;;;;8.63;2.37;;;;;;;;;;4971026;28;20213;-80
2022/07/04 04:28:07;;;;;;;6.77;1.80;;;;;;;;;;4975176;28;20285;-81
2022/07/04 04:30:34;;;;;;;4.00;2.30;;;;;;;;;;4973440;28;20273;-79
2022/07/04 04:36:12;;;;;;;4.23;2.00;;;;;;;;;;4963359;28;20849;-80
2022/07/04 04:38:39;;;;;;;3.83;1.80;;;;;;;;;;4971171;28;20273;-80
2022/07/04 04:41:08;;;;;;;5.50;1.87;;;;;;;;;;4972504;28;20198;-80
2022/07/04 04:43:35;;;;;;;3.70;1.97;;;;;;;;;;4972333;28;20197;-79
2022/07/04 04:46:02;;;;;;;3.40;1.73;;;;;;;;;;4971455;28;20762;-79
2022/07/04 04:48:29;;;;;;;5.17;2.00;;;;;;;;;;4971551;28;20700;-81
2022/07/04 04:50:56;;;;;;;2.97;1.77;;;;;;;;;;4974451;28;20206;-80
2022/07/04 04:53:25;;;;;;;4.23;1.77;;;;;;;;;;4970888;28;20209;-79
2022/07/04 04:55:52;;;;;;;2.80;1.83;;;;;;;;;;4972382;28;20210;-79
2022/07/04 04:58:21;;;;;;;3.53;1.73;;;;;;;;;;4970272;28;20315;-79
2022/07/04 05:00:49;;;;;;;6.63;2.03;;;;;;;;;;4974551;28;20660;-79
2022/07/04 05:03:16;;;;;;;5.20;1.80;;;;;;;;;;4973794;28;20410;-79
2022/07/04 05:05:43;;;;;;;5.73;1.90;;;;;;;;;;4975811;28;20269;-79
2022/07/04 05:08:12;;;;;;;3.83;1.73;;;;;;;;;;4973759;28;20220;-80
2022/07/04 05:10:39;;;;;;;8.07;1.97;;;;;;;;;;4974770;28;20238;-80
2022/07/04 05:13:06;;;;;;;2.27;1.60;;;;;;;;;;4977294;28;20228;-81
2022/07/04 05:15:35;;;;;;;5.30;1.70;;;;;;;;;;4973673;28;20203;-80
2022/07/04 05:18:02;;;;;;;5.10;1.40;;;;;;;;;;4977793;28;20310;-80
2022/07/04 05:20:29;;;;;;;4.60;1.97;;;;;;;;;;4974457;28;20604;-80
2022/07/04 05:22:56;;;;;;;5.33;1.73;;;;;;;;;;4973770;28;20745;-80
2022/07/04 05:25:24;;;;;;;3.13;1.67;;;;;;;;;;4974204;28;20575;-80
2022/07/04 05:27:51;;;;;;;2.00;1.30;;;;;;;;;;4976497;28;20209;-79
2022/07/04 05:30:18;;;;;;;2.87;1.60;;;;;;;;;;4968149;28;20233;-80
2022/07/04 05:32:47;;;;;;;4.27;1.70;;;;;;;;;;4972855;28;20253;-80
2022/07/04 05:35:14;;;;;;;3.07;1.50;;;;;;;;;;4973952;28;20209;-80
2022/07/04 05:37:41;;;;;;;4.13;1.50;;;;;;;;;;4977006;28;20208;-80
2022/07/04 05:40:09;;;;;;;4.73;1.60;;;;;;;;;;4971342;28;20202;-80
2022/07/04 05:42:36;;;;;;;5.70;1.30;;;;;;;;;;4973525;28;20229;-80
2022/07/04 05:45:03;;;;;;;4.80;1.40;;;;;;;;;;4974523;28;20702;-80
2022/07/04 05:47:30;;;;;;;7.13;1.40;;;;;;;;;;4972468;28;21128;-80
2022/07/04 05:50:00;;;;;;;7.00;1.77;;;;;;;;;;4974807;28;20273;-80
2022/07/04 05:52:27;;;;;;;3.70;1.30;;;;;;;;;;4971853;28;20240;-80
2022/07/04 05:54:54;;;;;;;3.67;1.20;;;;;;;;;;4972435;28;20206;-79
2022/07/04 05:57:21;;;;;;;5.03;1.30;;;;;;;;;;4973321;28;20207;-79
2022/07/04 05:59:48;;;;;;;4.07;1.20;;;;;;;;;;4973721;28;20598;-79
2022/07/04 06:02:16;;;;;;;4.40;1.60;;;;;;;;;;4972329;28;20709;-80
2022/07/04 06:04:43;;;;;;;2.43;1.10;;;;;;;;;;4972229;28;20287;-80
2022/07/04 06:07:12;;;;;;;3.03;1.30;;;;;;;;;;4972776;28;20297;-81
2022/07/04 06:09:39;;;;;;;3.23;1.20;;;;;;;;;;4973136;28;20196;-81
2022/07/04 06:12:06;;;;;;;6.07;1.37;;;;;;;;;;4974460;28;20615;-80
2022/07/04 06:14:33;;;;;;;6.00;1.43;;;;;;;;;;4973604;28;20287;-81
2022/07/04 06:17:00;;;;;;;4.00;1.43;;;;;;;;;;4973282;28;20221;-79
2022/07/04 06:19:27;;;;;;;3.33;1.37;;;;;;;;;;4971355;28;20228;-79
2022/07/04 06:21:55;;;;;;;5.83;1.40;;;;;;;;;;4970985;28;20656;-79
2022/07/04 06:24:23;;;;;;;5.07;1.70;;;;;;;;;;4967332;28;20300;-80
2022/07/04 06:26:50;;;;;;;3.47;1.33;;;;;;;;;;4969760;28;20293;-80
2022/07/04 06:29:18;;;;;;;4.60;1.50;;;;;;;;;;4974486;28;20625;-79
2022/07/04 06:31:45;;;;;;;4.33;1.23;;;;;;;;;;4976124;28;20301;-80
2022/07/04 06:36:57;;;;;;;4.07;1.10;;;;;;;;;;4978677;28;20584;-80
2022/07/04 06:39:25;;;;;;;2.80;1.33;;;;;;;;;;4977094;28;20745;-80
2022/07/04 06:41:52;;;;;;;2.63;1.00;;;;;;;;;;4976951;28;20276;-81
2022/07/04 06:44:20;;;;;;;3.23;0.80;;;;;;;;;;4971714;28;20229;-81
2022/07/04 06:46:47;;;;;;;8.37;1.13;;;;;;;;;;4974361;28;20206;-81
2022/07/04 06:49:14;;;;;;;4.00;0.80;;;;;;;;;;4972480;28;20315;-80
2022/07/04 06:51:41;;;;;;;2.93;0.93;;;;;;;;;;4971921;28;20261;-80
2022/07/04 06:54:08;;;;;;;6.57;1.20;;;;;;;;;;4972249;28;20216;-80
2022/07/04 06:56:37;;;;;;;2.73;0.70;;;;;;;;;;4975220;28;20213;-81
2022/07/04 06:59:04;;;;;;;5.77;1.03;;;;;;;;;;4975365;28;21324;-80
2022/07/04 07:01:32;;;;;;;2.23;0.83;;;;;;;;;;4975456;28;20242;-79
2022/07/04 07:03:59;;;;;;;2.73;0.67;;;;;;;;;;4974791;28;20258;-80
2022/07/04 07:06:26;;;;;;;7.23;0.80;;;;;;;;;;4976392;28;20202;-79
2022/07/04 07:08:53;;;;;;;2.63;0.80;;;;;;;;;;4975213;28;20289;-79
2022/07/04 07:11:21;;;;;;;1.80;0.90;;;;;;;;;;4975832;28;20233;-80
2022/07/04 07:13:51;;;;;;;2.00;0.80;;;;;;;;;;4975395;28;20206;-80
2022/07/04 07:16:19;;;;;;;6.37;0.60;;;;;;;;;;4977768;28;20229;-80
2022/07/04 07:18:46;;;;;;;2.07;0.70;;;;;;;;;;4971244;28;20313;-81
2022/07/04 07:21:13;;;;;;;2.90;0.77;;;;;;;;;;4975186;28;20201;-81
2022/07/04 07:23:41;;;;;;;1.77;0.50;;;;;;;;;;4974000;28;20289;-80
2022/07/04 07:26:08;;;;;;;2.07;0.50;;;;;;;;;;4976322;28;20206;-80
2022/07/04 07:28:36;;;;;;;3.00;0.70;;;;;;;;;;4972271;28;20198;-80
2022/07/04 07:31:04;;;;;;;2.63;0.67;;;;;;;;;;4974528;28;20210;-80
2022/07/04 07:33:32;;;;;;;3.13;0.70;;;;;;;;;;4972207;28;20232;-81
2022/07/04 07:35:59;;;;;;;2.63;0.50;;;;;;;;;;4973188;28;20202;-81
2022/07/04 07:38:26;;;;;;;2.10;0.50;;;;;;;;;;4974036;28;20226;-81
2022/07/04 07:40:53;;;;;;;2.73;0.70;;;;;;;;;;4976303;28;20217;-80
2022/07/04 07:43:23;;;;;;;7.37;0.77;;;;;;;;;;4973860;28;20226;-81
2022/07/04 07:45:50;;;;;;;3.03;0.57;;;;;;;;;;4974325;28;20233;-79
2022/07/04 07:48:19;;;;;;;5.27;0.60;;;;;;;;;;4975216;28;20214;-81
2022/07/04 07:50:46;;;;;;;1.07;0.53;;;;;;;;;;4974106;28;20324;-81
2022/07/04 07:53:13;;;;;;;3.07;0.50;;;;;;;;;;4974747;28;20233;-81
2022/07/04 07:55:41;;;;;;;3.93;0.70;;;;;;;;;;4971318;28;20702;-80
2022/07/04 08:01:25;;;;;;;1.43;0.60;;;;;;;;;;4967807;28;20613;-82
2022/07/04 08:06:47;;;;;;;1.70;0.60;;;;;;;;;;4972073;28;20209;-81
2022/07/04 08:09:15;;;;;;;4.15;0.60;;;;;;;;;;4971304;28;20213;-81
2022/07/04 08:11:42;;;;;;;2.88;0.80;;;;;;;;;;4970294;28;20277;-81
2022/07/04 08:14:09;;;;;;;4.13;0.70;;;;;;;;;;4973235;28;20304;-81
2022/07/04 08:16:36;;;;;;;1.17;0.40;;;;;;;;;;4976211;28;20300;-81
2022/07/04 08:19:05;;;;;;;9.48;0.73;;;;;;;;;;4976599;28;20235;-80
2022/07/04 08:21:32;;;;;;;1.67;0.60;;;;;;;;;;4976840;28;20229;-81
2022/07/04 08:23:59;;;;;;;3.03;0.80;;;;;;;;;;4974921;28;20269;-79
2022/07/04 08:26:26;;;;;;;1.33;0.53;;;;;;;;;;4977987;28;20241;-81
2022/07/04 08:28:57;;;;;;;1.98;0.50;;;;;;;;;;4975601;28;20217;-81
2022/07/04 08:31:24;;;;;;;3.40;0.50;;;;;;;;;;4978336;28;20253;-80
2022/07/04 08:33:51;;;;;;;3.05;0.60;;;;;;;;;;4982765;28;20210;-79
2022/07/04 08:36:19;;;;;;;1.73;0.80;;;;;;;;;;4980088;28;20232;-79
2022/07/04 08:38:47;;;;;;;3.00;0.60;;;;;;;;;;4975357;28;20280;-81
2022/07/04 08:41:16;;;;;;;2.87;0.90;;;;;;;;;;4977375;28;20206;-80
2022/07/04 08:43:43;;;;;;;4.90;0.73;;;;;;;;;;4971916;28;20276;-80
2022/07/04 08:46:11;;;;;;;1.90;0.60;;;;;;;;;;4974189;28;20230;-79
2022/07/04 08:48:39;;;;;;;2.63;0.67;;;;;;;;;;4973699;28;20216;-79
2022/07/04 08:51:10;;;;;;;1.27;0.53;;;;;;;;;;4972762;28;20207;-80
2022/07/04 08:53:40;;;;;;;2.17;0.97;;;;;;;;;;4966335;28;20201;-80
2022/07/04 08:58:57;;;;;;;2.20;0.50;;;;;;;;;;4965038;28;20245;-78
2022/07/04 09:01:24;;;;;;;3.37;0.70;;;;;;;;;;4969647;28;20238;-78
2022/07/04 09:03:52;;;;;;;2.23;0.70;;;;;;;;;;4971573;28;20629;-78
2022/07/04 09:06:19;;;;;;;3.00;0.80;;;;;;;;;;4970981;28;20279;-79
2022/07/04 09:08:47;;;;;;;2.87;0.73;;;;;;;;;;4971372;28;20219;-78
2022/07/04 09:11:15;;;;;;;5.27;0.90;;;;;;;;;;4972447;28;20962;-80
2022/07/04 09:13:42;;;;;;;3.43;0.80;;;;;;;;;;4964268;28;20296;-79
2022/07/04 09:16:09;;;;;;;3.60;0.53;;;;;;;;;;4967215;28;20246;-79
2022/07/04 09:18:37;;;;;;;1.37;0.70;;;;;;;;;;4968252;28;20250;-79
2022/07/04 09:21:05;;;;;;;1.90;0.60;;;;;;;;;;4965798;28;20276;-79
2022/07/04 09:23:34;;;;;;;2.87;0.60;;;;;;;;;;4967883;28;20246;-79
2022/07/04 09:26:09;;;;;;;2.37;0.63;;;;;;;;;;4966307;28;20214;-79
2022/07/04 09:28:37;;;;;;;2.63;0.63;;;;;;;;;;4964851;28;20399;-79
2022/07/04 09:31:14;;;;;;;2.57;0.57;;;;;;;;;;4967620;28;20292;-80
2022/07/04 09:33:49;;;;;;;1.63;0.77;;;;;;;;;;4966472;28;20224;-79
2022/07/04 09:36:17;;;;;;;1.80;0.70;;;;;;;;;;4961762;28;20208;-79
2022/07/04 09:38:44;;;;;;;1.57;0.60;;;;;;;;;;4965573;28;20228;-79
2022/07/04 09:41:34;;;;;;;3.00;0.60;;;;;;;;;;4966931;28;20676;-79
2022/07/04 09:44:02;;;;;;;4.13;0.73;;;;;;;;;;4963910;28;21631;-79
2022/07/04 09:46:30;;;;;;;0.87;0.50;;;;;;;;;;4962380;28;20244;-79
2022/07/04 09:48:57;;;;;;;2.90;0.70;;;;;;;;;;4971689;28;20569;-80
2022/07/04 09:51:37;;;;;;;3.63;0.80;;;;;;;;;;4970881;28;20236;-79
2022/07/04 09:54:15;;;;;;;3.50;0.80;;;;;;;;;;4966617;28;20210;-79
2022/07/04 09:56:44;;;;;;;2.03;0.70;;;;;;;;;;4975907;28;20229;-78
2022/07/04 09:59:11;;;;;;;3.70;0.80;;;;;;;;;;4973534;28;20278;-79
2022/07/04 10:01:42;;;;;;;3.43;0.93;;;;;;;;;;4968119;28;20269;-80
2022/07/04 10:04:09;;;;;;;2.43;0.90;;;;;;;;;;4968616;28;20294;-81
2022/07/04 10:06:39;;;;;;;3.27;1.50;;;;;;;;;;4971058;28;20205;-79
2022/07/04 10:09:10;;;;;;;2.77;0.80;;;;;;;;;;4974024;28;20214;-81
2022/07/04 10:11:38;;;;;;;1.50;0.60;;;;;;;;;;4980515;28;20229;-81
2022/07/04 10:14:07;;;;;;;1.20;0.70;;;;;;;;;;4974871;28;20236;-79
2022/07/04 10:16:35;;;;;;;2.77;0.77;;;;;;;;;;4973117;28;20794;-80
2022/07/04 10:19:02;;;;;;;3.37;0.77;;;;;;;;;;4973782;28;20210;-81
2022/07/04 10:21:30;;;;;;;3.43;0.90;;;;;;;;;;4972570;28;20764;-79
2022/07/04 10:23:57;;;;;;;1.57;0.60;;;;;;;;;;4970832;28;20343;-80
2022/07/04 10:26:25;;;;;;;2.07;0.70;;;;;;;;;;4968027;28;20340;-80
2022/07/04 10:28:53;;;;;;;2.03;0.70;;;;;;;;;;4971918;28;20205;-79
2022/07/04 10:31:22;;;;;;;1.77;0.60;;;;;;;;;;4975862;28;20252;-80
2022/07/04 10:33:50;;;;;;;1.70;0.83;;;;;;;;;;4969694;28;20301;-79
2022/07/04 10:36:18;;;;;;;3.77;0.70;;;;;;;;;;4971060;28;20666;-79
2022/07/04 10:38:48;;;;;;;2.53;0.90;;;;;;;;;;4969749;28;20317;-80
2022/07/04 10:41:18;;;;;;;1.37;0.60;;;;;;;;;;4973090;28;20229;-80
2022/07/04 10:44:06;;;;;;;2.17;1.10;;;;;;;;;;4968214;28;20210;-79
2022/07/04 10:46:46;;;;;;;2.63;0.70;;;;;;;;;;4971143;28;20202;-80
2022/07/04 10:49:24;;;;;;;3.37;0.70;;;;;;;;;;4971981;28;20216;-80
2022/07/04 10:51:52;;;;;;;3.60;0.67;;;;;;;;;;4970193;28;20714;-80
2022/07/04 10:54:20;;;;;;;1.67;0.80;;;;;;;;;;4972252;28;20206;-79
2022/07/04 10:56:52;;;;;;;4.00;0.70;;;;;;;;;;4970149;28;21627;-80
2022/07/04 10:59:20;;;;;;;4.10;0.90;;;;;;;;;;4967889;28;20224;-80
2022/07/04 11:01:53;;;;;;;2.30;0.63;;;;;;;;;;4969051;28;20230;-80
2022/07/04 11:04:39;;;;;;;1.60;0.63;;;;;;;;;;4970632;28;20206;-80
2022/07/04 11:07:06;;;;;;;2.63;0.60;;;;;;;;;;4968752;28;20303;-80
2022/07/04 11:09:34;;;;;;;1.43;0.73;;;;;;;;;;4965722;28;20199;-80
2022/07/04 11:15:16;;;;;;;2.83;0.60;;;;;;;;;;4941468;28;20597;-79
2022/07/04 11:17:46;;;;;;;2.83;0.50;;;;;;;;;;4982285;28;20205;-81
2022/07/04 11:20:14;;;;;;;1.50;0.60;;;;;;;;;;4979257;28;20289;-82
2022/07/04 11:22:41;;;;;;;6.70;0.73;;;;;;;;;;4980725;28;20249;-80
2022/07/04 11:25:09;;;;;;;0.70;0.47;;;;;;;;;;4971257;28;20210;-81
2022/07/04 11:27:36;;;;;;;2.60;0.53;;;;;;;;;;4970006;28;20306;-80
2022/07/04 11:30:03;;;;;;;1.03;0.57;;;;;;;;;;4971807;28;20214;-81
2022/07/04 11:32:31;;;;;;;2.13;0.70;;;;;;;;;;4975918;28;20232;-80
2022/07/04 11:35:00;;;;;;;3.07;0.83;;;;;;;;;;4974925;28;20203;-80
2022/07/04 11:37:27;;;;;;;2.70;0.57;;;;;;;;;;4974400;28;20224;-79
2022/07/04 11:45:02;;;;;;;0.93;0.50;;;;;;;;;;4978402;28;20234;-79
2022/07/04 11:45:44;;;;;;;1.73;0.57;;;;;;;;;;4976099;28;20210;-79
2022/07/04 11:48:12;;;;;;;1.07;0.50;;;;;;;;;;4973332;28;20253;-79
2022/07/04 11:50:40;;;;;;;0.50;0.33;;;;;;;;;;4977291;28;20218;-81
2022/07/04 11:53:07;;;;;;;1.07;0.50;;;;;;;;;;4969713;28;20720;-80
2022/07/04 11:55:34;;;;;;;2.43;0.63;;;;;;;;;;4976942;28;20211;-81
2022/07/04 11:58:01;;;;;;;0.80;0.50;;;;;;;;;;4974760;28;20277;-80
2022/07/04 12:00:31;;;;;;;1.83;0.50;;;;;;;;;;4976089;28;20244;-80
2022/07/04 12:03:00;;;;;;;1.83;0.60;;;;;;;;;;4982613;28;20238;-80
2022/07/04 12:05:27;;;;;;;2.37;0.53;;;;;;;;;;4971904;28;20690;-80
2022/07/04 12:07:56;;;;;;;3.70;0.53;;;;;;;;;;4968693;28;20231;-79
2022/07/04 12:10:23;;;;;;;2.13;0.70;;;;;;;;;;4978272;28;20209;-80
2022/07/04 12:12:54;;;;;;;3.57;0.60;;;;;;;;;;4974776;28;20234;-79
2022/07/04 12:15:22;;;;;;;1.00;0.50;;;;;;;;;;4975616;28;20202;-80
2022/07/04 12:17:51;;;;;;;2.93;0.50;;;;;;;;;;4978840;28;20206;-80
2022/07/04 12:20:19;;;;;;;2.20;0.60;;;;;;;;;;4976236;28;20238;-80
2022/07/04 12:22:51;;;;;;;1.43;0.40;;;;;;;;;;4978125;28;20583;-80
2022/07/04 12:25:24;;;;;;;3.03;0.70;;;;;;;;;;4970782;28;20298;-80
2022/07/04 12:27:55;;;;;;;1.80;0.50;;;;;;;;;;4974185;28;20247;-79
2022/07/04 12:30:23;;;;;;;2.10;0.80;;;;;;;;;;4978524;28;20267;-78
2022/07/04 12:32:51;;;;;;;1.10;0.50;;;;;;;;;;4976404;28;20237;-80
2022/07/04 12:35:38;;;;;;;0.77;0.50;;;;;;;;;;4980759;28;20324;-80
2022/07/04 12:38:06;;;;;;;1.67;0.47;;;;;;;;;;4973661;28;20208;-79
2022/07/04 12:40:35;;;;;;;1.70;0.60;;;;;;;;;;4975316;28;20285;-79
2022/07/04 12:43:02;;;;;;;2.20;0.57;;;;;;;;;;4989715;28;20244;-79
2022/07/04 12:45:43;;;;;;;1.20;0.50;;;;;;;;;;4985229;28;20200;-79
2022/07/04 12:48:15;;;;;;;1.90;0.50;;;;;;;;;;4991842;28;20221;-78
2022/07/04 12:50:43;;;;;;;5.73;0.60;;;;;;;;;;4988823;28;20216;-79
2022/07/04 12:53:11;;;;;;;1.37;0.40;;;;;;;;;;4989460;28;20221;-79
2022/07/04 12:55:40;;;;;;;2.13;0.50;;;;;;;;;;4994606;28;20234;-78
2022/07/04 12:58:07;;;;;;;2.10;0.60;;;;;;;;;;4983104;28;20300;-79
2022/07/04 13:00:34;;;;;;;2.53;0.47;;;;;;;;;;4983843;28;20224;-78
2022/07/04 13:03:02;;;;;;;2.57;0.70;;;;;;;;;;4976549;28;20234;-78
2022/07/04 13:05:29;;;;;;;3.47;0.70;;;;;;;;;;4975336;28;20618;-79
2022/07/04 13:07:57;;;;;;;1.43;0.77;;;;;;;;;;4975888;28;20675;-78
2022/07/04 13:10:24;;;;;;;1.07;0.50;;;;;;;;;;4975511;28;20292;-79
2022/07/04 13:12:52;;;;;;;2.40;0.60;;;;;;;;;;4974720;28;20263;-79
2022/07/04 13:15:20;;;;;;;3.90;0.50;;;;;;;;;;4976443;28;20270;-79
2022/07/04 13:17:47;;;;;;;1.40;0.60;;;;;;;;;;4974781;28;20302;-79
2022/07/04 13:20:14;;;;;;;1.40;0.60;;;;;;;;;;4977173;28;20236;-80
2022/07/04 13:22:41;;;;;;;3.37;0.70;;;;;;;;;;4982456;28;20312;-78
2022/07/04 13:25:09;;;;;;;1.33;0.60;;;;;;;;;;4978689;28;20654;-78
2022/07/04 13:27:36;;;;;;;2.03;0.43;;;;;;;;;;4981459;28;20217;-78
2022/07/04 13:30:05;;;;;;;1.80;0.50;;;;;;;;;;4981794;28;20305;-78
2022/07/04 13:32:32;;;;;;;3.77;0.60;;;;;;;;;;4983052;28;20217;-79
2022/07/04 13:35:00;;;;;;;1.53;0.50;;;;;;;;;;4986244;28;20209;-78
2022/07/04 13:37:27;;;;;;;2.60;0.50;;;;;;;;;;4974763;28;20289;-79
2022/07/04 13:39:55;;;;;;;0.73;0.40;;;;;;;;;;4980793;28;20208;-80
2022/07/04 13:45:09;;;;;;;1.60;0.70;;;;;;;;;;4977406;28;20211;-80
2022/07/04 13:47:36;;;;;;;0.97;0.60;;;;;;;;;;4984155;28;20628;-80
2022/07/04 13:50:03;;;;;;;1.27;0.50;;;;;;;;;;4979024;28;20276;-80
2022/07/04 13:52:30;;;;;;;1.00;0.60;;;;;;;;;;4983822;28;20233;-80
2022/07/04 13:54:58;;;;;;;2.10;0.70;;;;;;;;;;4981098;28;20210;-80
2022/07/04 13:57:25;;;;;;;1.63;0.60;;;;;;;;;;4982194;28;20201;-79
2022/07/04 13:59:53;;;;;;;1.30;0.53;;;;;;;;;;4982682;28;20202;-79
2022/07/04 14:02:22;;;;;;;0.43;0.40;;;;;;;;;;4978109;28;20229;-79
2022/07/04 14:04:50;;;;;;;1.43;0.57;;;;;;;;;;4980873;28;20235;-80
2022/07/04 14:07:20;;;;;;;0.93;0.53;;;;;;;;;;4984642;28;20212;-79
2022/07/04 14:09:47;;;;;;;2.13;0.50;;;;;;;;;;4990700;28;20229;-78
2022/07/04 14:12:15;;;;;;;0.73;0.43;;;;;;;;;;4988046;28;20598;-80
2022/07/04 14:14:42;;;;;;;1.47;0.50;;;;;;;;;;4984091;28;20694;-79
2022/07/04 14:17:09;;;;;;;1.93;0.60;;;;;;;;;;4980584;28;20232;-80
2022/07/04 14:19:38;;;;;;;3.50;0.70;;;;;;;;;;4977498;28;20264;-80
2022/07/04 14:22:05;;;;;;;1.27;0.50;;;;;;;;;;4980009;28;20246;-80
2022/07/04 14:24:32;;;;;;;3.43;0.60;;;;;;;;;;4979177;28;20665;-80
2022/07/04 14:26:59;;;;;;;3.53;0.63;;;;;;;;;;4977431;28;20205;-79
2022/07/04 14:29:26;;;;;;;0.83;0.50;;;;;;;;;;4983035;28;20211;-79
2022/07/04 14:31:54;;;;;;;3.87;0.70;;;;;;;;;;4978728;28;20233;-79
2022/07/04 14:34:21;;;;;;;1.47;0.57;;;;;;;;;;4976063;28;21229;-80
2022/07/04 14:36:49;;;;;;;1.33;0.50;;;;;;;;;;4978452;28;20293;-79
2022/07/04 14:39:19;;;;;;;2.03;0.50;;;;;;;;;;4976473;28;20201;-80
2022/07/04 14:41:48;;;;;;;1.33;0.60;;;;;;;;;;4979317;28;20230;-79
2022/07/04 14:44:15;;;;;;;1.13;0.60;;;;;;;;;;4974741;28;20287;-80
2022/07/04 14:46:42;;;;;;;1.93;0.67;;;;;;;;;;4978445;28;20201;-79
2022/07/04 14:49:10;;;;;;;0.90;0.40;;;;;;;;;;4977547;28;21177;-79
2022/07/04 14:51:39;;;;;;;1.00;0.50;;;;;;;;;;4977064;28;20843;-80
2022/07/04 14:57:13;;;;;;;0.73;0.53;;;;;;;;;;4978484;28;20205;-79
2022/07/04 14:59:40;;;;;;;2.77;0.70;;;;;;;;;;4978087;28;20202;-79
2022/07/04 15:02:10;;;;;;;1.23;0.53;;;;;;;;;;4976211;28;20323;-79
2022/07/04 15:04:37;;;;;;;1.03;0.50;;;;;;;;;;4973360;28;20203;-80
2022/07/04 15:07:04;;;;;;;5.03;0.60;;;;;;;;;;4981357;28;20220;-80
2022/07/04 15:09:31;;;;;;;2.97;0.60;;;;;;;;;;4982323;28;20590;-79
2022/07/04 15:11:58;;;;;;;1.43;0.50;;;;;;;;;;4982284;28;20254;-79
2022/07/04 15:14:27;;;;;;;1.90;0.57;;;;;;;;;;4978533;28;20215;-79
2022/07/04 15:16:54;;;;;;;1.87;0.50;;;;;;;;;;4978303;28;20208;-79
2022/07/04 15:19:21;;;;;;;2.40;0.70;;;;;;;;;;4975863;28;20242;-79
2022/07/04 15:24:33;;;;;;;2.83;0.60;;;;;;;;;;4976417;28;20296;-78
2022/07/04 15:27:00;;;;;;;1.97;0.60;;;;;;;;;;4982180;28;20217;-78
2022/07/04 15:29:29;;;;;;;1.70;0.67;;;;;;;;;;4984537;28;20246;-79